sensor_id;sensor_type;location;lat;lon;timestamp;pressure;altitude;pressure_sealevel;temperature;humidity
22104;BME280;11218;48.886;9.426;2023-09-19T00:02:19;97564.16;;;18.65;78.18
22104;BME280;11218;48.886;9.426;2023-09-19T00:04:48;97574.56;;;18.63;78.84
22104;BME280;11218;48.886;9.426;2023-09-19T00:07:16;97585.47;;;18.63;78.83
22104;BME280;11218;48.886;9.426;2023-09-19T00:09:44;97583.41;;;18.68;78.64
22104;BME280;11218;48.886;9.426;2023-09-19T00:12:13;97596.56;;;18.66;79.35
22104;BME280;11218;48.886;9.426;2023-09-19T00:14:41;97583.91;;;18.70;80.21
22104;BME280;11218;48.886;9.426;2023-09-19T00:17:09;97599.44;;;18.61;80.13
22104;BME280;11218;48.886;9.426;2023-09-19T00:19:38;97592.81;;;18.54;81.11
22104;BME280;11218;48.886;9.426;2023-09-19T00:22:09;97604.81;;;18.53;81.02
22104;BME280;11218;48.886;9.426;2023-09-19T00:24:39;97606.75;;;18.52;81.80
22104;BME280;11218;48.886;9.426;2023-09-19T00:27:08;97605.88;;;18.43;82.25
22104;BME280;11218;48.886;9.426;2023-09-19T00:29:36;97613.88;;;18.39;82.33
22104;BME280;11218;48.886;9.426;2023-09-19T00:32:04;97618.03;;;18.37;82.30
22104;BME280;11218;48.886;9.426;2023-09-19T00:34:35;97623.31;;;18.33;83.02
22104;BME280;11218;48.886;9.426;2023-09-19T00:37:05;97627.13;;;18.32;83.00
22104;BME280;11218;48.886;9.426;2023-09-19T00:39:33;97628.13;;;18.36;83.08
22104;BME280;11218;48.886;9.426;2023-09-19T00:42:01;97628.56;;;18.30;83.45
22104;BME280;11218;48.886;9.426;2023-09-19T00:44:31;97625.22;;;18.33;82.69
22104;BME280;11218;48.886;9.426;2023-09-19T00:47:01;97628.38;;;18.26;83.50
22104;BME280;11218;48.886;9.426;2023-09-19T00:49:30;97623.53;;;18.23;83.78
22104;BME280;11218;48.886;9.426;2023-09-19T00:51:59;97619.53;;;18.21;83.60
22104;BME280;11218;48.886;9.426;2023-09-19T00:54:29;97625.09;;;18.16;83.45
22104;BME280;11218;48.886;9.426;2023-09-19T00:56:57;97618.22;;;18.18;83.40
22104;BME280;11218;48.886;9.426;2023-09-19T00:59:25;97627.63;;;18.12;83.97
22104;BME280;11218;48.886;9.426;2023-09-19T01:01:54;97626.00;;;18.11;83.97
22104;BME280;11218;48.886;9.426;2023-09-19T01:04:23;97630.16;;;18.09;84.64
22104;BME280;11218;48.886;9.426;2023-09-19T01:06:51;97627.25;;;18.05;83.87
22104;BME280;11218;48.886;9.426;2023-09-19T01:09:20;97627.56;;;18.03;83.97
22104;BME280;11218;48.886;9.426;2023-09-19T01:11:51;97622.59;;;18.05;83.66
22104;BME280;11218;48.886;9.426;2023-09-19T01:14:31;97626.75;;;18.03;83.16
22104;BME280;11218;48.886;9.426;2023-09-19T01:17:05;97634.13;;;18.02;83.68
22104;BME280;11218;48.886;9.426;2023-09-19T01:22:48;97645.50;;;18.04;83.19
22104;BME280;11218;48.886;9.426;2023-09-19T01:28:51;97650.16;;;18.04;82.86
22104;BME280;11218;48.886;9.426;2023-09-19T01:31:23;97652.56;;;18.05;82.67
22104;BME280;11218;48.886;9.426;2023-09-19T01:34:00;97637.22;;;18.10;82.59
22104;BME280;11218;48.886;9.426;2023-09-19T01:36:32;97634.41;;;18.01;83.32
22104;BME280;11218;48.886;9.426;2023-09-19T01:39:07;97634.63;;;18.04;83.16
22104;BME280;11218;48.886;9.426;2023-09-19T01:41:54;97635.53;;;18.00;82.96
22104;BME280;11218;48.886;9.426;2023-09-19T01:44:30;97641.78;;;18.00;83.39
22104;BME280;11218;48.886;9.426;2023-09-19T01:47:04;97644.81;;;17.99;83.44
22104;BME280;11218;48.886;9.426;2023-09-19T01:49:47;97645.75;;;17.94;83.53
22104;BME280;11218;48.886;9.426;2023-09-19T01:52:20;97656.63;;;17.94;83.26
22104;BME280;11218;48.886;9.426;2023-09-19T01:54:51;97645.56;;;17.91;83.90
22104;BME280;11218;48.886;9.426;2023-09-19T01:57:26;97649.06;;;17.91;83.65
22104;BME280;11218;48.886;9.426;2023-09-19T02:00:00;97661.38;;;17.89;84.02
22104;BME280;11218;48.886;9.426;2023-09-19T02:02:37;97660.28;;;17.90;84.10
22104;BME280;11218;48.886;9.426;2023-09-19T02:05:06;97655.63;;;17.90;83.63
22104;BME280;11218;48.886;9.426;2023-09-19T02:07:35;97655.94;;;17.89;83.71
22104;BME280;11218;48.886;9.426;2023-09-19T02:10:05;97665.72;;;17.90;83.51
22104;BME280;11218;48.886;9.426;2023-09-19T02:12:33;97664.63;;;17.91;83.54
22104;BME280;11218;48.886;9.426;2023-09-19T02:15:03;97670.66;;;17.88;83.56
22104;BME280;11218;48.886;9.426;2023-09-19T02:17:35;97668.44;;;17.90;83.70
22104;BME280;11218;48.886;9.426;2023-09-19T02:20:05;97664.41;;;17.87;84.08
22104;BME280;11218;48.886;9.426;2023-09-19T02:22:42;97670.97;;;17.86;83.94
22104;BME280;11218;48.886;9.426;2023-09-19T02:25:11;97673.09;;;17.89;83.26
22104;BME280;11218;48.886;9.426;2023-09-19T02:27:41;97677.31;;;17.95;83.15
22104;BME280;11218;48.886;9.426;2023-09-19T02:30:10;97681.16;;;17.94;83.00
22104;BME280;11218;48.886;9.426;2023-09-19T02:32:40;97682.38;;;17.88;82.89
22104;BME280;11218;48.886;9.426;2023-09-19T02:35:10;97683.19;;;17.89;83.21
22104;BME280;11218;48.886;9.426;2023-09-19T02:37:39;97680.09;;;17.82;83.24
22104;BME280;11218;48.886;9.426;2023-09-19T02:40:09;97685.22;;;17.83;83.51
22104;BME280;11218;48.886;9.426;2023-09-19T02:42:46;97678.78;;;17.79;83.30
22104;BME280;11218;48.886;9.426;2023-09-19T02:45:16;97679.41;;;17.76;83.38
22104;BME280;11218;48.886;9.426;2023-09-19T02:47:47;97683.63;;;17.82;82.92
22104;BME280;11218;48.886;9.426;2023-09-19T02:50:16;97685.66;;;17.77;83.29
22104;BME280;11218;48.886;9.426;2023-09-19T02:52:45;97687.56;;;17.76;83.43
22104;BME280;11218;48.886;9.426;2023-09-19T02:55:16;97687.56;;;17.76;82.94
22104;BME280;11218;48.886;9.426;2023-09-19T02:57:47;97682.44;;;17.75;82.82
22104;BME280;11218;48.886;9.426;2023-09-19T03:00:16;97690.91;;;17.73;82.42
22104;BME280;11218;48.886;9.426;2023-09-19T03:02:50;97695.13;;;17.65;83.30
22104;BME280;11218;48.886;9.426;2023-09-19T03:05:20;97696.22;;;17.64;83.08
22104;BME280;11218;48.886;9.426;2023-09-19T03:07:48;97703.56;;;17.64;83.32
22104;BME280;11218;48.886;9.426;2023-09-19T03:10:17;97704.19;;;17.61;83.39
22104;BME280;11218;48.886;9.426;2023-09-19T03:12:46;97692.00;;;17.58;83.14
22104;BME280;11218;48.886;9.426;2023-09-19T03:15:14;97699.03;;;17.59;83.38
22104;BME280;11218;48.886;9.426;2023-09-19T03:17:43;97701.16;;;17.62;83.31
22104;BME280;11218;48.886;9.426;2023-09-19T03:20:13;97705.78;;;17.62;83.18
22104;BME280;11218;48.886;9.426;2023-09-19T03:22:44;97710.63;;;17.65;83.30
22104;BME280;11218;48.886;9.426;2023-09-19T03:25:12;97703.88;;;17.62;83.37
22104;BME280;11218;48.886;9.426;2023-09-19T03:27:41;97704.69;;;17.63;83.48
22104;BME280;11218;48.886;9.426;2023-09-19T03:30:09;97703.88;;;17.62;83.81
22104;BME280;11218;48.886;9.426;2023-09-19T03:32:44;97689.97;;;17.64;83.27
22104;BME280;11218;48.886;9.426;2023-09-19T03:35:14;97694.31;;;17.65;83.28
22104;BME280;11218;48.886;9.426;2023-09-19T03:37:43;97697.84;;;17.65;83.34
22104;BME280;11218;48.886;9.426;2023-09-19T03:40:12;97707.41;;;17.63;83.04
22104;BME280;11218;48.886;9.426;2023-09-19T03:42:41;97696.53;;;17.63;83.71
22104;BME280;11218;48.886;9.426;2023-09-19T03:45:10;97703.31;;;17.65;83.32
22104;BME280;11218;48.886;9.426;2023-09-19T03:47:40;97706.31;;;17.64;83.15
22104;BME280;11218;48.886;9.426;2023-09-19T03:50:09;97696.22;;;17.64;83.35
22104;BME280;11218;48.886;9.426;2023-09-19T03:52:39;97705.19;;;17.65;83.49
22104;BME280;11218;48.886;9.426;2023-09-19T03:55:08;97711.16;;;17.67;83.57
22104;BME280;11218;48.886;9.426;2023-09-19T03:57:36;97721.25;;;17.66;83.00
22104;BME280;11218;48.886;9.426;2023-09-19T04:00:05;97717.13;;;17.69;83.63
22104;BME280;11218;48.886;9.426;2023-09-19T04:02:38;97721.75;;;17.68;83.79
22104;BME280;11218;48.886;9.426;2023-09-19T04:05:07;97727.19;;;17.68;83.96
22104;BME280;11218;48.886;9.426;2023-09-19T04:07:36;97720.44;;;17.66;84.86
22104;BME280;11218;48.886;9.426;2023-09-19T04:10:06;97725.34;;;17.64;85.39
22104;BME280;11218;48.886;9.426;2023-09-19T04:12:35;97736.84;;;17.61;86.45
22104;BME280;11218;48.886;9.426;2023-09-19T04:15:04;97730.19;;;17.53;87.79
22104;BME280;11218;48.886;9.426;2023-09-19T04:17:33;97731.91;;;17.49;88.57
22104;BME280;11218;48.886;9.426;2023-09-19T04:20:01;97727.66;;;17.43;89.36
22104;BME280;11218;48.886;9.426;2023-09-19T04:22:31;97726.88;;;17.42;89.56
22104;BME280;11218;48.886;9.426;2023-09-19T04:24:59;97724.13;;;17.42;89.60
22104;BME280;11218;48.886;9.426;2023-09-19T04:27:28;97732.50;;;17.32;89.92
22104;BME280;11218;48.886;9.426;2023-09-19T04:29:57;97724.44;;;17.27;90.61
22104;BME280;11218;48.886;9.426;2023-09-19T04:32:28;97731.28;;;17.25;91.03
22104;BME280;11218;48.886;9.426;2023-09-19T04:35:00;97729.66;;;17.24;90.90
22104;BME280;11218;48.886;9.426;2023-09-19T04:37:32;97738.34;;;17.26;90.85
22104;BME280;11218;48.886;9.426;2023-09-19T04:40:00;97737.53;;;17.25;91.15
22104;BME280;11218;48.886;9.426;2023-09-19T04:42:32;97744.28;;;17.28;91.34
22104;BME280;11218;48.886;9.426;2023-09-19T04:45:01;97746.69;;;17.29;91.12
22104;BME280;11218;48.886;9.426;2023-09-19T04:47:30;97748.91;;;17.27;91.37
22104;BME280;11218;48.886;9.426;2023-09-19T04:49:58;97749.72;;;17.28;91.59
22104;BME280;11218;48.886;9.426;2023-09-19T04:52:26;97753.25;;;17.28;91.66
22104;BME280;11218;48.886;9.426;2023-09-19T04:54:54;97751.34;;;17.29;91.28
22104;BME280;11218;48.886;9.426;2023-09-19T04:57:23;97751.84;;;17.31;91.75
22104;BME280;11218;48.886;9.426;2023-09-19T04:59:53;97756.19;;;17.32;91.23
22104;BME280;11218;48.886;9.426;2023-09-19T05:02:21;97752.53;;;17.23;92.05
22104;BME280;11218;48.886;9.426;2023-09-19T05:04:50;97756.34;;;17.22;92.39
22104;BME280;11218;48.886;9.426;2023-09-19T05:07:19;97756.88;;;17.24;91.97
22104;BME280;11218;48.886;9.426;2023-09-19T05:09:48;97758.19;;;17.26;92.27
22104;BME280;11218;48.886;9.426;2023-09-19T05:12:16;97757.59;;;17.29;92.09
22104;BME280;11218;48.886;9.426;2023-09-19T05:14:45;97767.06;;;17.32;92.38
22104;BME280;11218;48.886;9.426;2023-09-19T05:17:15;97781.69;;;17.36;92.49
22104;BME280;11218;48.886;9.426;2023-09-19T05:19:43;97779.97;;;17.40;92.28
22104;BME280;11218;48.886;9.426;2023-09-19T05:22:13;97783.00;;;17.38;91.22
22104;BME280;11218;48.886;9.426;2023-09-19T05:24:42;97777.25;;;17.40;91.75
22104;BME280;11218;48.886;9.426;2023-09-19T05:27:10;97786.22;;;17.40;91.85
22104;BME280;11218;48.886;9.426;2023-09-19T05:29:39;97788.03;;;17.31;93.02
22104;BME280;11218;48.886;9.426;2023-09-19T05:32:08;97785.31;;;17.31;93.07
22104;BME280;11218;48.886;9.426;2023-09-19T05:34:39;97789.50;;;17.24;93.86
22104;BME280;11218;48.886;9.426;2023-09-19T05:37:07;97796.38;;;17.21;94.21
22104;BME280;11218;48.886;9.426;2023-09-19T05:39:35;97792.53;;;17.22;93.71
22104;BME280;11218;48.886;9.426;2023-09-19T05:42:04;97786.66;;;17.15;94.09
22104;BME280;11218;48.886;9.426;2023-09-19T05:44:32;97793.72;;;17.16;94.58
22104;BME280;11218;48.886;9.426;2023-09-19T05:47:01;97795.56;;;17.21;94.66
22104;BME280;11218;48.886;9.426;2023-09-19T05:49:29;97794.16;;;17.23;94.63
22104;BME280;11218;48.886;9.426;2023-09-19T05:51:59;97816.34;;;17.30;93.72
22104;BME280;11218;48.886;9.426;2023-09-19T05:54:27;97837.16;;;17.21;95.57
22104;BME280;11218;48.886;9.426;2023-09-19T05:56:56;97844.09;;;17.14;96.23
22104;BME280;11218;48.886;9.426;2023-09-19T05:59:24;97845.97;;;16.99;96.85
22104;BME280;11218;48.886;9.426;2023-09-19T06:01:52;97844.00;;;16.86;97.66
22104;BME280;11218;48.886;9.426;2023-09-19T06:04:21;97844.88;;;16.82;98.41
22104;BME280;11218;48.886;9.426;2023-09-19T06:06:50;97846.56;;;16.96;95.80
22104;BME280;11218;48.886;9.426;2023-09-19T06:09:19;97849.53;;;16.81;95.93
22104;BME280;11218;48.886;9.426;2023-09-19T06:11:50;97844.31;;;16.85;96.45
22104;BME280;11218;48.886;9.426;2023-09-19T06:14:19;97858.47;;;16.82;97.54
22104;BME280;11218;48.886;9.426;2023-09-19T06:16:47;97859.22;;;16.87;96.67
22104;BME280;11218;48.886;9.426;2023-09-19T06:19:15;97859.81;;;16.84;96.99
22104;BME280;11218;48.886;9.426;2023-09-19T06:21:43;97859.13;;;16.92;96.95
22104;BME280;11218;48.886;9.426;2023-09-19T06:24:12;97865.69;;;16.91;96.63
22104;BME280;11218;48.886;9.426;2023-09-19T06:26:41;97869.72;;;16.94;96.21
22104;BME280;11218;48.886;9.426;2023-09-19T06:29:13;97865.81;;;17.00;95.70
22104;BME280;11218;48.886;9.426;2023-09-19T06:31:45;97877.81;;;16.99;92.83
22104;BME280;11218;48.886;9.426;2023-09-19T06:34:14;97877.44;;;16.87;92.77
22104;BME280;11218;48.886;9.426;2023-09-19T06:36:42;97872.06;;;16.82;91.95
22104;BME280;11218;48.886;9.426;2023-09-19T06:39:11;97878.69;;;16.75;92.29
22104;BME280;11218;48.886;9.426;2023-09-19T06:41:41;97872.97;;;16.77;90.46
22104;BME280;11218;48.886;9.426;2023-09-19T06:44:10;97882.66;;;16.64;91.58
22104;BME280;11218;48.886;9.426;2023-09-19T06:46:38;97879.63;;;16.66;91.54
22104;BME280;11218;48.886;9.426;2023-09-19T06:49:07;97884.00;;;16.62;91.67
22104;BME280;11218;48.886;9.426;2023-09-19T06:51:37;97884.59;;;16.59;92.16
22104;BME280;11218;48.886;9.426;2023-09-19T06:54:05;97887.78;;;16.66;92.65
22104;BME280;11218;48.886;9.426;2023-09-19T06:56:33;97880.19;;;16.63;92.45
22104;BME280;11218;48.886;9.426;2023-09-19T06:59:03;97892.34;;;16.70;91.80
22104;BME280;11218;48.886;9.426;2023-09-19T07:01:33;97896.69;;;16.71;92.41
22104;BME280;11218;48.886;9.426;2023-09-19T07:04:03;97897.00;;;16.89;90.19
22104;BME280;11218;48.886;9.426;2023-09-19T07:06:32;97894.63;;;16.82;90.65
22104;BME280;11218;48.886;9.426;2023-09-19T07:09:00;97900.28;;;16.86;91.05
22104;BME280;11218;48.886;9.426;2023-09-19T07:11:29;97890.16;;;16.91;91.31
22104;BME280;11218;48.886;9.426;2023-09-19T07:13:58;97900.38;;;16.99;91.30
22104;BME280;11218;48.886;9.426;2023-09-19T07:16:28;97898.50;;;17.14;90.01
22104;BME280;11218;48.886;9.426;2023-09-19T07:18:56;97899.38;;;17.28;89.76
22104;BME280;11218;48.886;9.426;2023-09-19T07:21:24;97901.25;;;17.46;90.05
22104;BME280;11218;48.886;9.426;2023-09-19T07:23:53;97920.03;;;17.61;89.20
22104;BME280;11218;48.886;9.426;2023-09-19T07:26:24;97914.06;;;17.78;88.71
22104;BME280;11218;48.886;9.426;2023-09-19T07:28:52;97921.94;;;17.93;88.15
22104;BME280;11218;48.886;9.426;2023-09-19T07:31:24;97916.69;;;17.97;87.16
22104;BME280;11218;48.886;9.426;2023-09-19T07:33:53;97914.47;;;17.99;86.85
22104;BME280;11218;48.886;9.426;2023-09-19T07:36:24;97917.22;;;17.99;86.74
22104;BME280;11218;48.886;9.426;2023-09-19T07:38:53;97924.28;;;18.00;87.15
22104;BME280;11218;48.886;9.426;2023-09-19T07:41:29;97930.44;;;18.05;85.80
22104;BME280;11218;48.886;9.426;2023-09-19T07:43:57;97936.88;;;17.96;84.92
22104;BME280;11218;48.886;9.426;2023-09-19T07:46:26;97933.84;;;17.97;85.13
22104;BME280;11218;48.886;9.426;2023-09-19T07:48:55;97936.66;;;17.92;84.00
22104;BME280;11218;48.886;9.426;2023-09-19T07:51:23;97928.09;;;17.99;84.00
22104;BME280;11218;48.886;9.426;2023-09-19T07:53:51;97926.91;;;18.05;84.09
22104;BME280;11218;48.886;9.426;2023-09-19T07:56:21;97932.47;;;18.14;83.14
22104;BME280;11218;48.886;9.426;2023-09-19T07:58:55;97930.56;;;18.28;83.70
22104;BME280;11218;48.886;9.426;2023-09-19T08:01:26;97941.56;;;18.36;83.68
22104;BME280;11218;48.886;9.426;2023-09-19T08:03:57;97949.94;;;18.54;83.14
22104;BME280;11218;48.886;9.426;2023-09-19T08:06:27;97941.47;;;18.55;82.76
22104;BME280;11218;48.886;9.426;2023-09-19T08:08:56;97946.63;;;18.57;82.40
22104;BME280;11218;48.886;9.426;2023-09-19T08:11:25;97961.47;;;18.64;81.74
22104;BME280;11218;48.886;9.426;2023-09-19T08:13:56;97964.50;;;18.49;79.32
22104;BME280;11218;48.886;9.426;2023-09-19T08:16:26;97961.25;;;18.33;79.43
22104;BME280;11218;48.886;9.426;2023-09-19T08:18:56;97960.31;;;18.24;79.67
22104;BME280;11218;48.886;9.426;2023-09-19T08:21:24;97966.88;;;18.23;81.92
22104;BME280;11218;48.886;9.426;2023-09-19T08:23:55;97967.41;;;18.39;80.62
22104;BME280;11218;48.886;9.426;2023-09-19T08:26:24;97966.09;;;18.50;79.45
22104;BME280;11218;48.886;9.426;2023-09-19T08:28:53;97964.19;;;18.64;79.54
22104;BME280;11218;48.886;9.426;2023-09-19T08:31:22;97954.78;;;18.70;78.33
22104;BME280;11218;48.886;9.426;2023-09-19T08:33:53;97963.66;;;18.90;78.38
22104;BME280;11218;48.886;9.426;2023-09-19T08:36:24;97954.72;;;19.12;77.09
22104;BME280;11218;48.886;9.426;2023-09-19T08:38:53;97950.03;;;19.26;75.39
22104;BME280;11218;48.886;9.426;2023-09-19T08:41:21;97964.50;;;19.26;73.96
22104;BME280;11218;48.886;9.426;2023-09-19T08:43:51;97950.69;;;19.31;73.67
22104;BME280;11218;48.886;9.426;2023-09-19T08:46:20;97965.72;;;19.43;74.94
22104;BME280;11218;48.886;9.426;2023-09-19T08:49:00;97962.09;;;19.69;74.44
22104;BME280;11218;48.886;9.426;2023-09-19T08:51:39;97972.34;;;19.86;74.33
22104;BME280;11218;48.886;9.426;2023-09-19T08:54:16;97966.63;;;19.96;71.03
22104;BME280;11218;48.886;9.426;2023-09-19T08:56:50;97975.81;;;20.00;69.58
22104;BME280;11218;48.886;9.426;2023-09-19T08:59:21;97978.44;;;19.83;69.72
22104;BME280;11218;48.886;9.426;2023-09-19T09:01:52;97982.03;;;19.70;71.12
22104;BME280;11218;48.886;9.426;2023-09-19T09:04:22;97993.13;;;19.51;71.29
22104;BME280;11218;48.886;9.426;2023-09-19T09:06:53;97982.22;;;19.37;71.63
22104;BME280;11218;48.886;9.426;2023-09-19T09:09:21;97987.50;;;19.34;72.29
22104;BME280;11218;48.886;9.426;2023-09-19T09:11:50;97983.94;;;19.33;72.55
22104;BME280;11218;48.886;9.426;2023-09-19T09:14:20;97974.59;;;19.48;73.74
22104;BME280;11218;48.886;9.426;2023-09-19T09:16:52;97975.06;;;19.64;73.09
22104;BME280;11218;48.886;9.426;2023-09-19T09:19:23;97974.53;;;19.76;71.82
22104;BME280;11218;48.886;9.426;2023-09-19T09:21:53;97980.53;;;19.86;71.56
22104;BME280;11218;48.886;9.426;2023-09-19T09:24:27;97975.13;;;19.95;69.65
22104;BME280;11218;48.886;9.426;2023-09-19T09:26:57;97986.06;;;19.95;69.88
22104;BME280;11218;48.886;9.426;2023-09-19T09:29:42;97981.22;;;19.92;66.45
22104;BME280;11218;48.886;9.426;2023-09-19T09:32:20;97987.94;;;19.86;65.41
22104;BME280;11218;48.886;9.426;2023-09-19T09:34:51;97997.56;;;19.83;64.94
22104;BME280;11218;48.886;9.426;2023-09-19T09:37:21;97990.41;;;19.96;65.40
22104;BME280;11218;48.886;9.426;2023-09-19T09:39:53;97998.28;;;19.97;64.44
22104;BME280;11218;48.886;9.426;2023-09-19T09:42:30;97987.31;;;19.89;62.12
22104;BME280;11218;48.886;9.426;2023-09-19T09:45:16;97995.81;;;19.87;62.95
22104;BME280;11218;48.886;9.426;2023-09-19T09:47:45;97991.59;;;19.81;61.06
22104;BME280;11218;48.886;9.426;2023-09-19T09:50:27;97983.53;;;19.76;61.33
22104;BME280;11218;48.886;9.426;2023-09-19T09:53:19;97991.66;;;19.67;61.84
22104;BME280;11218;48.886;9.426;2023-09-19T09:55:58;97981.72;;;19.72;62.05
22104;BME280;11218;48.886;9.426;2023-09-19T09:58:29;97992.34;;;19.73;62.89
22104;BME280;11218;48.886;9.426;2023-09-19T10:00:59;97987.13;;;19.85;61.55
22104;BME280;11218;48.886;9.426;2023-09-19T10:03:36;97984.03;;;20.09;62.02
22104;BME280;11218;48.886;9.426;2023-09-19T10:06:12;97973.38;;;20.30;60.96
22104;BME280;11218;48.886;9.426;2023-09-19T10:09:00;97979.94;;;20.51;59.79
22104;BME280;11218;48.886;9.426;2023-09-19T10:11:41;97968.59;;;20.75;59.96
22104;BME280;11218;48.886;9.426;2023-09-19T10:14:11;97978.09;;;20.95;57.85
22104;BME280;11218;48.886;9.426;2023-09-19T10:16:45;97975.53;;;20.90;57.41
22104;BME280;11218;48.886;9.426;2023-09-19T10:19:21;97978.09;;;20.95;56.67
22104;BME280;11218;48.886;9.426;2023-09-19T10:21:53;97966.53;;;20.98;57.37
22104;BME280;11218;48.886;9.426;2023-09-19T10:24:25;97973.19;;;21.23;56.85
22104;BME280;11218;48.886;9.426;2023-09-19T10:26:55;97961.13;;;21.33;56.79
22104;BME280;11218;48.886;9.426;2023-09-19T10:29:24;97975.31;;;21.35;56.39
22104;BME280;11218;48.886;9.426;2023-09-19T10:31:55;97959.03;;;21.47;55.17
22104;BME280;11218;48.886;9.426;2023-09-19T10:34:25;97952.72;;;21.55;55.92
22104;BME280;11218;48.886;9.426;2023-09-19T10:36:54;97962.53;;;21.56;54.62
22104;BME280;11218;48.886;9.426;2023-09-19T10:39:24;97965.97;;;21.44;54.20
22104;BME280;11218;48.886;9.426;2023-09-19T10:41:55;97975.16;;;21.40;53.85
22104;BME280;11218;48.886;9.426;2023-09-19T10:44:26;97972.25;;;21.53;54.76
22104;BME280;11218;48.886;9.426;2023-09-19T10:46:55;97970.13;;;21.68;52.18
22104;BME280;11218;48.886;9.426;2023-09-19T10:49:26;97971.72;;;21.77;52.73
22104;BME280;11218;48.886;9.426;2023-09-19T10:51:57;97970.25;;;21.88;52.85
22104;BME280;11218;48.886;9.426;2023-09-19T10:54:33;97968.78;;;22.08;52.85
22104;BME280;11218;48.886;9.426;2023-09-19T10:57:04;97968.53;;;22.30;53.07
22104;BME280;11218;48.886;9.426;2023-09-19T10:59:35;97965.25;;;22.46;50.56
22104;BME280;11218;48.886;9.426;2023-09-19T11:02:16;97966.31;;;22.62;51.49
22104;BME280;11218;48.886;9.426;2023-09-19T11:04:45;97964.47;;;22.75;50.89
22104;BME280;11218;48.886;9.426;2023-09-19T11:07:15;97963.94;;;22.90;49.52
22104;BME280;11218;48.886;9.426;2023-09-19T11:09:47;97959.59;;;22.89;47.79
22104;BME280;11218;48.886;9.426;2023-09-19T11:12:48;97963.88;;;22.69;48.44
22104;BME280;11218;48.886;9.426;2023-09-19T11:18:55;97962.53;;;22.37;49.49
22104;BME280;11218;48.886;9.426;2023-09-19T11:24:29;97954.94;;;22.43;50.29
22104;BME280;11218;48.886;9.426;2023-09-19T11:27:16;97951.59;;;22.67;48.61
22104;BME280;11218;48.886;9.426;2023-09-19T11:29:45;97939.09;;;22.86;47.35
22104;BME280;11218;48.886;9.426;2023-09-19T11:32:16;97933.13;;;22.84;47.54
22104;BME280;11218;48.886;9.426;2023-09-19T11:34:47;97930.44;;;22.67;47.58
22104;BME280;11218;48.886;9.426;2023-09-19T11:40:45;97929.91;;;22.82;47.69
22104;BME280;11218;48.886;9.426;2023-09-19T11:43:30;97929.59;;;22.84;46.82
22104;BME280;11218;48.886;9.426;2023-09-19T11:46:07;97939.69;;;22.62;47.73
22104;BME280;11218;48.886;9.426;2023-09-19T11:48:35;97937.59;;;22.59;47.31
22104;BME280;11218;48.886;9.426;2023-09-19T11:51:16;97928.63;;;22.80;46.75
22104;BME280;11218;48.886;9.426;2023-09-19T11:53:51;97931.81;;;22.90;49.66
22104;BME280;11218;48.886;9.426;2023-09-19T11:56:20;97920.69;;;22.87;50.28
22104;BME280;11218;48.886;9.426;2023-09-19T11:58:53;97926.34;;;22.52;50.85
22104;BME280;11218;48.886;9.426;2023-09-19T12:01:28;97923.84;;;22.30;51.28
22104;BME280;11218;48.886;9.426;2023-09-19T12:04:00;97930.63;;;22.33;51.65
22104;BME280;11218;48.886;9.426;2023-09-19T12:06:31;97923.50;;;22.02;52.05
22104;BME280;11218;48.886;9.426;2023-09-19T12:09:00;97916.88;;;22.03;51.92
22104;BME280;11218;48.886;9.426;2023-09-19T12:11:30;97912.84;;;21.92;52.50
22104;BME280;11218;48.886;9.426;2023-09-19T12:14:03;97916.38;;;22.01;52.39
22104;BME280;11218;48.886;9.426;2023-09-19T12:16:32;97912.53;;;22.02;52.96
22104;BME280;11218;48.886;9.426;2023-09-19T12:19:19;97928.16;;;22.10;51.43
22104;BME280;11218;48.886;9.426;2023-09-19T12:22:00;97919.38;;;22.25;51.12
22104;BME280;11218;48.886;9.426;2023-09-19T12:24:32;97909.28;;;22.38;51.07
22104;BME280;11218;48.886;9.426;2023-09-19T12:27:03;97901.25;;;22.62;51.81
22104;BME280;11218;48.886;9.426;2023-09-19T12:29:43;97903.91;;;22.50;51.23
22104;BME280;11218;48.886;9.426;2023-09-19T12:32:12;97904.72;;;22.51;51.17
22104;BME280;11218;48.886;9.426;2023-09-19T12:34:41;97895.97;;;22.57;51.78
22104;BME280;11218;48.886;9.426;2023-09-19T12:37:10;97897.91;;;22.86;51.02
22104;BME280;11218;48.886;9.426;2023-09-19T12:39:40;97888.91;;;23.19;49.09
22104;BME280;11218;48.886;9.426;2023-09-19T12:42:16;97892.31;;;23.37;47.64
22104;BME280;11218;48.886;9.426;2023-09-19T12:44:48;97883.53;;;23.43;46.96
22104;BME280;11218;48.886;9.426;2023-09-19T12:47:18;97891.44;;;23.45;47.80
22104;BME280;11218;48.886;9.426;2023-09-19T12:50:06;97898.09;;;23.44;48.53
22104;BME280;11218;48.886;9.426;2023-09-19T12:52:41;97882.53;;;23.48;46.98
22104;BME280;11218;48.886;9.426;2023-09-19T12:55:23;97890.91;;;23.31;46.17
22104;BME280;11218;48.886;9.426;2023-09-19T12:57:59;97888.16;;;22.98;47.56
22104;BME280;11218;48.886;9.426;2023-09-19T13:00:34;97892.50;;;22.69;48.42
22104;BME280;11218;48.886;9.426;2023-09-19T13:03:27;97890.50;;;22.49;49.12
22104;BME280;11218;48.886;9.426;2023-09-19T13:06:02;97884.28;;;22.40;49.57
22104;BME280;11218;48.886;9.426;2023-09-19T13:08:32;97892.75;;;22.26;49.87
22104;BME280;11218;48.886;9.426;2023-09-19T13:11:05;97892.00;;;22.17;50.24
22104;BME280;11218;48.886;9.426;2023-09-19T13:13:34;97882.38;;;22.02;51.07
22104;BME280;11218;48.886;9.426;2023-09-19T13:16:04;97888.94;;;22.01;51.90
22104;BME280;11218;48.886;9.426;2023-09-19T13:18:45;97882.19;;;22.07;50.61
22104;BME280;11218;48.886;9.426;2023-09-19T13:21:27;97884.44;;;22.05;49.06
22104;BME280;11218;48.886;9.426;2023-09-19T13:23:56;97886.72;;;21.94;49.38
22104;BME280;11218;48.886;9.426;2023-09-19T13:26:44;97883.63;;;21.96;49.17
22104;BME280;11218;48.886;9.426;2023-09-19T13:29:12;97874.63;;;21.95;49.90
22104;BME280;11218;48.886;9.426;2023-09-19T13:31:42;97884.00;;;21.86;50.10
22104;BME280;11218;48.886;9.426;2023-09-19T13:34:13;97875.44;;;21.87;50.23
22104;BME280;11218;48.886;9.426;2023-09-19T13:36:42;97872.69;;;21.96;50.39
22104;BME280;11218;48.886;9.426;2023-09-19T13:39:10;97874.31;;;21.88;50.91